createdAt,value
2022-08-07T00:00:15.304Z,16.90
2022-08-07T00:02:45.846Z,16.60
2022-08-07T00:05:13.014Z,16.50
2022-08-07T00:07:41.380Z,16.40
2022-08-07T00:10:27.060Z,16.30
2022-08-07T00:13:00.776Z,16.30
2022-08-07T00:15:38.562Z,16.20
2022-08-07T00:18:19.550Z,16.10
2022-08-07T00:20:49.466Z,16.00
2022-08-07T00:23:17.239Z,15.90
2022-08-07T00:25:46.002Z,15.80
2022-08-07T00:28:33.658Z,15.80
2022-08-07T00:31:12.788Z,15.80
2022-08-07T00:33:43.531Z,15.80
2022-08-07T00:36:14.684Z,15.70
2022-08-07T00:38:44.244Z,15.60
2022-08-07T00:41:14.976Z,15.60
2022-08-07T00:43:58.892Z,15.60
2022-08-07T00:46:27.176Z,15.60
2022-08-07T00:48:54.250Z,15.60
2022-08-07T00:51:21.307Z,15.50
2022-08-07T00:53:50.705Z,15.60
2022-08-07T00:56:23.215Z,15.70
2022-08-07T00:58:57.598Z,15.50
2022-08-07T01:01:24.536Z,15.60
2022-08-07T01:03:55.675Z,15.40
2022-08-07T01:06:27.955Z,15.40
2022-08-07T01:08:58.415Z,15.30
2022-08-07T01:12:09.829Z,15.20
2022-08-07T01:14:12.779Z,15.20
2022-08-07T01:16:46.987Z,15.40
2022-08-07T01:19:19.139Z,15.60
2022-08-07T01:21:53.466Z,15.60
2022-08-07T01:24:25.971Z,15.70
2022-08-07T01:26:53.935Z,15.50
2022-08-07T01:29:27.705Z,15.30
2022-08-07T01:31:59.655Z,15.10
2022-08-07T01:34:31.747Z,15.00
2022-08-07T01:37:03.084Z,15.00
2022-08-07T01:39:40.702Z,15.00
2022-08-07T01:42:39.319Z,15.00
2022-08-07T01:45:22.713Z,15.00
2022-08-07T01:48:30.495Z,15.00
2022-08-07T01:50:43.461Z,15.00
2022-08-07T01:53:21.101Z,15.10
2022-08-07T01:55:57.370Z,15.30
2022-08-07T01:58:29.513Z,15.00
2022-08-07T02:01:10.108Z,14.90
2022-08-07T02:03:59.877Z,14.90
2022-08-07T02:06:31.933Z,14.90
2022-08-07T02:09:03.629Z,14.70
2022-08-07T02:12:03.254Z,14.80
2022-08-07T02:14:40.931Z,14.70
2022-08-07T02:17:16.517Z,14.70
2022-08-07T02:20:07.155Z,14.60
2022-08-07T02:22:41.470Z,14.60
2022-08-07T02:25:13.883Z,14.50
2022-08-07T02:27:53.215Z,14.50
2022-08-07T02:30:21.848Z,14.50
2022-08-07T02:33:00.695Z,14.50
2022-08-07T02:36:29.878Z,14.50
2022-08-07T02:38:31.605Z,14.40
2022-08-07T02:41:01.209Z,14.40
2022-08-07T02:43:32.890Z,14.30
2022-08-07T02:46:02.033Z,14.30
2022-08-07T02:48:31.126Z,14.20
2022-08-07T02:50:59.873Z,14.20
2022-08-07T02:53:29.182Z,14.10
2022-08-07T02:56:03.623Z,14.10
2022-08-07T02:58:34.000Z,14.00
2022-08-07T03:01:03.113Z,14.00
2022-08-07T03:03:49.503Z,14.00
2022-08-07T03:06:25.900Z,14.00
2022-08-07T03:09:03.953Z,13.90
2022-08-07T03:11:32.892Z,13.80
2022-08-07T03:14:06.099Z,13.80
2022-08-07T03:16:34.023Z,13.80
2022-08-07T03:19:01.426Z,13.80
2022-08-07T03:21:33.037Z,13.80
2022-08-07T03:24:18.432Z,13.70
2022-08-07T03:26:58.864Z,13.60
2022-08-07T03:29:37.824Z,13.50
2022-08-07T03:32:13.184Z,13.50
2022-08-07T03:34:47.522Z,13.50
2022-08-07T03:37:32.542Z,13.50
2022-08-07T03:40:16.174Z,13.50
2022-08-07T03:42:44.352Z,13.40
2022-08-07T03:45:12.944Z,13.40
2022-08-07T03:48:01.012Z,13.60
2022-08-07T03:50:28.992Z,13.70
2022-08-07T03:53:00.196Z,13.60
2022-08-07T03:55:53.379Z,13.40
2022-08-07T03:59:05.128Z,13.30
2022-08-07T04:01:07.506Z,13.20
2022-08-07T04:03:53.133Z,13.20
2022-08-07T04:06:37.760Z,13.20
2022-08-07T04:09:15.081Z,13.10
2022-08-07T04:12:25.207Z,13.10
2022-08-07T04:14:43.399Z,13.10
2022-08-07T04:17:20.034Z,13.10
2022-08-07T04:19:53.974Z,13.00
2022-08-07T04:22:27.483Z,13.00
2022-08-07T04:24:58.442Z,13.00
2022-08-07T04:27:26.558Z,13.10
2022-08-07T04:30:01.215Z,13.20
2022-08-07T04:32:37.825Z,13.10
2022-08-07T04:35:07.260Z,13.00
2022-08-07T04:37:40.663Z,12.90
2022-08-07T04:40:26.748Z,12.80
2022-08-07T04:43:02.048Z,12.90
2022-08-07T04:45:57.812Z,12.80
2022-08-07T04:48:38.158Z,12.80
2022-08-07T04:51:09.078Z,12.80
2022-08-07T04:54:02.005Z,12.80
2022-08-07T04:58:23.667Z,12.70
2022-08-07T05:00:18.925Z,12.80
2022-08-07T05:03:01.111Z,13.00
2022-08-07T05:05:57.750Z,13.30
2022-08-07T05:09:01.133Z,13.20
2022-08-07T05:11:57.159Z,13.20
2022-08-07T05:14:53.517Z,13.10
2022-08-07T05:17:51.493Z,13.20
2022-08-07T05:20:09.661Z,13.30
2022-08-07T05:22:37.919Z,13.60
2022-08-07T05:25:08.774Z,13.80
2022-08-07T05:28:03.357Z,14.10
2022-08-07T05:30:30.099Z,14.60
2022-08-07T05:33:02.530Z,15.20
2022-08-07T05:35:33.332Z,15.80
2022-08-07T05:38:08.646Z,16.10
2022-08-07T05:40:37.894Z,16.30
2022-08-07T05:43:19.221Z,16.60
2022-08-07T05:46:06.197Z,16.90
2022-08-07T05:48:33.218Z,17.30
2022-08-07T05:51:02.015Z,17.60
2022-08-07T05:54:13.134Z,18.00
2022-08-07T05:56:19.584Z,18.20
2022-08-07T05:58:52.673Z,18.40
2022-08-07T06:01:23.196Z,18.50
2022-08-07T06:03:57.317Z,18.70
2022-08-07T06:06:32.610Z,19.30
2022-08-07T06:09:04.729Z,19.90
2022-08-07T06:11:34.480Z,20.60
2022-08-07T06:14:13.756Z,21.40
2022-08-07T06:16:55.905Z,21.70
2022-08-07T06:19:47.887Z,22.00
2022-08-07T06:22:23.392Z,22.00
2022-08-07T06:25:02.974Z,22.00
2022-08-07T06:27:59.798Z,22.00
2022-08-07T06:30:32.020Z,21.90
2022-08-07T06:33:09.936Z,21.80
2022-08-07T06:35:47.787Z,21.70
2022-08-07T06:38:31.990Z,21.80
2022-08-07T06:40:59.294Z,22.10
2022-08-07T06:43:26.815Z,22.30
2022-08-07T06:46:11.591Z,22.50
2022-08-07T06:48:42.155Z,22.50
2022-08-07T06:51:31.005Z,22.70
2022-08-07T06:55:29.445Z,23.60
2022-08-07T06:56:51.299Z,24.20
2022-08-07T07:00:12.384Z,23.90
2022-08-07T07:02:48.873Z,23.90
2022-08-07T07:05:12.685Z,24.00
2022-08-07T07:08:00.107Z,24.00
2022-08-07T07:10:33.411Z,24.30
2022-08-07T07:13:55.508Z,24.30
2022-08-07T07:16:18.057Z,24.40
2022-08-07T07:18:50.463Z,24.90
2022-08-07T07:21:20.472Z,24.90
2022-08-07T07:24:11.128Z,25.00
2022-08-07T07:26:37.276Z,25.40
2022-08-07T07:29:57.152Z,26.10
2022-08-07T07:31:56.194Z,25.80
2022-08-07T07:34:30.843Z,25.60
2022-08-07T07:37:14.400Z,25.40
2022-08-07T07:39:54.892Z,25.30
2022-08-07T07:42:33.224Z,25.70
2022-08-07T07:45:02.503Z,26.60
2022-08-07T07:47:29.695Z,26.50
2022-08-07T07:50:34.297Z,26.40
2022-08-07T07:52:47.107Z,26.40
2022-08-07T07:55:14.466Z,26.90
2022-08-07T07:57:52.222Z,26.70
2022-08-07T08:00:29.361Z,26.50
2022-08-07T08:03:08.442Z,25.90
2022-08-07T08:05:51.063Z,25.90
2022-08-07T08:08:34.834Z,26.50
2022-08-07T08:11:08.438Z,26.80
2022-08-07T08:13:53.316Z,26.70
2022-08-07T08:16:50.622Z,26.30
2022-08-07T08:20:18.120Z,27.00
2022-08-07T08:22:32.788Z,27.60
2022-08-07T08:25:42.035Z,28.10
2022-08-07T08:28:06.013Z,28.70
2022-08-07T08:30:34.590Z,28.40
2022-08-07T08:33:05.355Z,28.00
2022-08-07T08:35:39.371Z,27.20
2022-08-07T08:38:14.112Z,27.50
2022-08-07T08:40:46.932Z,27.80
2022-08-07T08:43:42.038Z,27.90
2022-08-07T08:46:38.122Z,28.00
2022-08-07T08:49:13.602Z,27.70
2022-08-07T08:51:49.547Z,27.70
2022-08-07T08:54:33.696Z,27.70
2022-08-07T08:57:04.160Z,27.30
2022-08-07T08:59:48.010Z,27.80
2022-08-07T09:02:36.410Z,28.30
2022-08-07T09:05:37.408Z,28.40
2022-08-07T09:08:28.437Z,28.10
2022-08-07T09:11:24.837Z,28.50
2022-08-07T09:14:30.516Z,28.90
2022-08-07T09:17:17.627Z,28.90
2022-08-07T09:20:35.900Z,29.10
2022-08-07T09:24:35.069Z,29.40
2022-08-07T09:26:25.519Z,29.10
2022-08-07T09:30:02.337Z,28.90
2022-08-07T09:32:17.190Z,28.80
2022-08-07T09:36:02.815Z,29.00
2022-08-07T09:38:14.398Z,28.90
2022-08-07T09:41:03.563Z,28.90
2022-08-07T09:44:06.895Z,28.70
2022-08-07T09:47:49.910Z,28.40
2022-08-07T09:50:34.553Z,28.30
2022-08-07T09:53:03.356Z,28.30
2022-08-07T09:56:03.818Z,28.10
2022-08-07T09:58:51.010Z,27.70
2022-08-07T10:01:51.794Z,27.30
2022-08-07T10:04:32.996Z,27.60
2022-08-07T10:07:24.547Z,27.40
2022-08-07T10:10:03.320Z,27.00
2022-08-07T10:12:52.910Z,26.40
2022-08-07T10:15:44.532Z,26.10
2022-08-07T10:18:26.615Z,26.60
2022-08-07T10:21:19.762Z,26.30
2022-08-07T10:24:10.614Z,26.10
2022-08-07T10:27:11.471Z,25.60
2022-08-07T10:30:00.672Z,25.40
2022-08-07T10:32:59.769Z,25.90
2022-08-07T10:35:55.811Z,26.70
2022-08-07T10:38:47.862Z,27.00
2022-08-07T10:41:47.437Z,27.40
2022-08-07T10:44:37.710Z,26.90
2022-08-07T10:47:19.405Z,26.00
2022-08-07T10:50:15.483Z,25.70
2022-08-07T10:53:05.217Z,25.60
2022-08-07T10:55:45.878Z,25.50
2022-08-07T10:58:33.106Z,25.90
2022-08-07T11:01:12.733Z,26.10
2022-08-07T11:04:32.206Z,26.20
2022-08-07T11:07:14.965Z,26.20
2022-08-07T11:10:09.209Z,26.20
2022-08-07T11:12:49.193Z,26.40
2022-08-07T11:15:31.999Z,26.70
2022-08-07T11:18:18.697Z,26.90
2022-08-07T11:21:12.421Z,26.90
2022-08-07T11:23:52.514Z,26.80
2022-08-07T11:26:27.408Z,26.40
2022-08-07T11:29:12.935Z,26.10
2022-08-07T11:32:25.219Z,26.40
2022-08-07T11:34:58.755Z,26.50
2022-08-07T11:38:10.516Z,26.80
2022-08-07T11:41:02.222Z,26.70
2022-08-07T11:43:54.915Z,26.80
2022-08-07T11:46:48.816Z,26.80
